Time;durP1;ratioP1;P1;durP2;ratioP2;P2;SDS_P1;SDS_P2;PMS_P1;PMS_P2;Temp;Humidity;BMP_temperature;BMP_pressure;BME280_temperature;BME280_humidity;BME280_pressure;Samples;Min_cycle;Max_cycle;Signal;HPM_P1;HPM_P2
2021/08/16 00:00:19;;;;;;;0.10;0.10;;;;;;;22.42;40.21;99031.91;5110586;28;20023;-77
2021/08/16 00:02:45;;;;;;;0.25;0.25;;;;;;;22.39;40.34;99025.22;5110707;28;20023;-76
2021/08/16 00:05:15;;;;;;;0.10;0.10;;;;;;;22.35;40.43;99025.13;5112091;28;20487;-75
2021/08/16 00:07:41;;;;;;;0.10;0.10;;;;;;;22.37;40.58;99027.47;5110288;28;20081;-76
2021/08/16 00:10:07;;;;;;;0.10;0.10;;;;;;;22.36;40.48;99023.97;5112082;28;20536;-75
2021/08/16 00:12:33;;;;;;;0.00;0.00;;;;;;;22.33;40.57;99021.19;5111383;28;20110;-76
2021/08/16 00:14:59;;;;;;;0.05;0.05;;;;;;;22.34;40.70;99025.47;5108572;27;20127;-75
2021/08/16 00:17:24;;;;;;;0.10;0.10;;;;;;;22.34;40.86;99031.72;5111654;28;20498;-74
2021/08/16 00:19:50;;;;;;;0.00;0.00;;;;;;;22.35;40.74;99021.59;5099661;28;20028;-75
2021/08/16 00:22:16;;;;;;;0.00;0.00;;;;;;;22.33;40.67;99013.00;5111776;28;20027;-76
2021/08/16 00:24:41;;;;;;;0.32;0.20;;;;;;;22.35;40.93;99016.16;5104128;28;20035;-76
2021/08/16 00:27:07;;;;;;;0.00;0.00;;;;;;;22.33;41.28;99019.22;5101131;28;20072;-75
2021/08/16 00:29:32;;;;;;;0.10;0.10;;;;;;;22.33;41.42;99018.44;5098692;28;20038;-73
2021/08/16 00:31:58;;;;;;;0.00;0.00;;;;;;;22.32;41.68;99008.69;5111611;28;20027;-73
2021/08/16 00:34:23;;;;;;;0.00;0.00;;;;;;;22.34;42.19;99012.63;5092634;28;20135;-74
2021/08/16 00:36:49;;;;;;;0.10;0.10;;;;;;;22.33;43.03;99010.28;5090861;28;20103;-73
2021/08/16 00:39:14;;;;;;;0.00;0.00;;;;;;;22.32;43.05;99014.91;5099778;28;20020;-75
2021/08/16 00:41:40;;;;;;;0.00;0.00;;;;;;;22.29;42.58;99012.13;5109443;28;20024;-74
2021/08/16 00:44:07;;;;;;;0.10;0.10;;;;;;;22.29;43.22;99015.66;5096055;28;20028;-76
2021/08/16 00:46:34;;;;;;;0.05;0.05;;;;;;;22.23;43.69;98998.00;5091191;28;20036;-75
2021/08/16 00:48:59;;;;;;;0.10;0.10;;;;;;;22.21;43.56;99006.50;5091183;28;20063;-75
2021/08/16 00:51:27;;;;;;;0.10;0.10;;;;;;;22.19;43.59;99006.09;5111258;28;20051;-75
2021/08/16 00:53:53;;;;;;;0.00;0.00;;;;;;;22.17;43.57;99005.66;5111027;27;20398;-74
2021/08/16 00:56:19;;;;;;;0.00;0.00;;;;;;;22.14;43.80;99008.28;5110428;28;20032;-76
2021/08/16 00:58:44;;;;;;;0.00;0.00;;;;;;;22.12;43.72;98999.69;5110679;28;20467;-75
2021/08/16 01:01:10;;;;;;;0.00;0.00;;;;;;;22.06;43.62;98994.50;5092193;28;20024;-75
2021/08/16 01:03:36;;;;;;;0.00;0.00;;;;;;;22.08;43.85;98996.88;5090668;28;20059;-76
2021/08/16 01:06:01;;;;;;;0.00;0.00;;;;;;;22.05;43.95;99003.03;5109170;28;20555;-76
2021/08/16 01:08:27;;;;;;;0.00;0.00;;;;;;;22.04;44.00;99013.13;5111208;28;20506;-76
2021/08/16 01:10:53;;;;;;;0.10;0.10;;;;;;;22.01;44.09;99011.13;5096749;28;20035;-74
2021/08/16 01:13:19;;;;;;;0.00;0.00;;;;;;;21.94;43.89;99010.19;5093696;28;20779;-73
2021/08/16 01:15:58;;;;;;;0.00;0.00;;;;;;;21.93;44.16;99011.31;5102151;28;20052;-75
2021/08/16 01:18:25;;;;;;;0.00;0.00;;;;;;;21.87;44.05;99019.75;5104328;28;20027;-75
2021/08/16 01:20:53;;;;;;;0.00;0.00;;;;;;;21.81;44.06;99010.25;5114644;28;20344;-74
2021/08/16 01:23:20;;;;;;;0.00;0.00;;;;;;;21.77;44.29;99014.84;5113786;28;20020;-75
2021/08/16 01:25:47;;;;;;;0.00;0.00;;;;;;;21.63;44.43;98998.97;5098648;27;20123;-74
2021/08/16 01:28:17;;;;;;;0.00;0.00;;;;;;;21.67;44.46;99009.94;5112340;28;20054;-74
2021/08/16 01:30:43;;;;;;;0.00;0.00;;;;;;;;;;5097695;28;20458;-74
2021/08/16 01:33:09;;;;;;;0.00;0.00;;;;;;;21.60;44.61;99015.97;5094908;28;20016;-74
2021/08/16 01:35:34;;;;;;;0.00;0.00;;;;;;;21.53;44.96;99008.41;5100359;28;20047;-73
2021/08/16 01:38:00;;;;;;;0.00;0.00;;;;;;;21.49;44.98;99007.50;5094718;28;20088;-74
2021/08/16 01:40:26;;;;;;;0.00;0.00;;;;;;;21.43;45.27;99009.72;5107402;28;20028;-73
2021/08/16 01:42:51;;;;;;;0.00;0.00;;;;;;;21.40;45.25;99013.13;5112845;28;20062;-74
2021/08/16 01:45:16;;;;;;;0.00;0.00;;;;;;;21.38;45.59;99017.34;5115059;28;20023;-74
2021/08/16 01:47:42;;;;;;;0.00;0.00;;;;;;;21.30;45.49;99019.09;5109433;28;20115;-74
2021/08/16 01:50:07;;;;;;;0.00;0.00;;;;;;;21.25;45.83;99014.69;5114821;28;20032;-74
2021/08/16 01:52:33;;;;;;;0.00;0.00;;;;;;;21.22;45.86;99011.88;5114668;28;20020;-74
2021/08/16 01:54:59;;;;;;;0.03;0.03;;;;;;;21.17;45.96;99007.47;5104958;28;20482;-76
2021/08/16 01:57:24;;;;;;;0.08;0.08;;;;;;;21.14;46.26;99015.53;5093100;28;20024;-76
2021/08/16 01:59:50;;;;;;;0.00;0.00;;;;;;;21.12;46.18;99021.34;5101394;28;20399;-76
2021/08/16 02:02:15;;;;;;;0.10;0.10;;;;;;;21.06;46.57;99012.63;5109396;28;20114;-74
2021/08/16 02:04:40;;;;;;;0.00;0.00;;;;;;;21.01;46.74;99010.16;5114179;28;20028;-73
2021/08/16 02:07:06;;;;;;;0.10;0.10;;;;;;;20.97;46.83;99016.63;5102791;28;20031;-75
2021/08/16 02:09:31;;;;;;;0.00;0.00;;;;;;;20.94;47.04;99016.19;5094384;28;20035;-73
2021/08/16 02:11:56;;;;;;;0.00;0.00;;;;;;;20.88;47.38;99017.56;5092514;28;20020;-73
2021/08/16 02:14:22;;;;;;;0.10;0.10;;;;;;;20.87;47.63;99016.00;5096712;28;20051;-73
2021/08/16 02:16:47;;;;;;;0.10;0.10;;;;;;;20.86;47.61;99019.06;5097809;28;20164;-74
2021/08/16 02:19:13;;;;;;;0.10;0.10;;;;;;;20.81;47.97;99013.88;5099107;28;20035;-75
2021/08/16 02:21:38;;;;;;;0.00;0.00;;;;;;;20.79;47.92;99016.94;5096299;28;20111;-74
2021/08/16 02:24:04;;;;;;;0.00;0.00;;;;;;;20.72;48.00;99017.50;5093759;28;20514;-74
2021/08/16 02:26:30;;;;;;;1.00;0.30;;;;;;;20.73;47.92;99018.31;5093827;28;20471;-74
2021/08/16 02:28:55;;;;;;;0.00;0.00;;;;;;;20.70;47.97;99022.50;5093567;28;20162;-74
2021/08/16 02:31:23;;;;;;;0.00;0.00;;;;;;;20.68;48.25;99023.94;5103153;28;20110;-72
2021/08/16 02:33:50;;;;;;;;;;;;;;;20.68;48.20;99021.22;5102703;28;20111;-73
2021/08/16 02:36:15;;;;;;;0.05;0.05;;;;;;;20.66;48.22;99020.81;5114116;28;20010;-74
2021/08/16 02:38:41;;;;;;;0.10;0.10;;;;;;;20.63;48.31;99022.28;5104864;27;20444;-73
2021/08/16 02:41:06;;;;;;;0.10;0.10;;;;;;;20.58;48.60;99017.88;5093332;28;20040;-72
2021/08/16 02:43:32;;;;;;;0.05;0.05;;;;;;;20.57;48.71;99024.44;5094341;28;20384;-73
2021/08/16 02:45:57;;;;;;;0.00;0.00;;;;;;;20.54;48.89;99010.75;5100137;28;20085;-75
2021/08/16 02:48:22;;;;;;;0.10;0.10;;;;;;;20.46;48.90;99015.97;5113510;28;20031;-73
2021/08/16 02:50:48;;;;;;;0.00;0.00;;;;;;;20.45;49.09;99014.38;5105275;28;20085;-75
2021/08/16 02:53:13;;;;;;;0.08;0.08;;;;;;;20.42;49.26;99027.84;5095505;28;20089;-76
2021/08/16 02:55:39;;;;;;;0.00;0.00;;;;;;;20.34;49.61;99016.00;5093381;28;20038;-73
2021/08/16 02:58:04;;;;;;;0.00;0.00;;;;;;;20.29;49.67;99021.66;5092912;28;20024;-73
2021/08/16 03:00:30;;;;;;;0.10;0.10;;;;;;;20.25;49.86;99021.56;5095355;28;20070;-76
2021/08/16 03:02:55;;;;;;;0.10;0.10;;;;;;;20.17;50.28;99018.97;5110986;28;20080;-74
2021/08/16 03:05:21;;;;;;;0.00;0.00;;;;;;;20.15;50.18;99025.53;5111591;28;20024;-75
2021/08/16 03:07:46;;;;;;;0.10;0.10;;;;;;;20.15;50.41;99024.72;5095975;28;20549;-74
2021/08/16 03:10:13;;;;;;;0.10;0.10;;;;;;;20.08;50.18;99011.72;5103307;28;20040;-75
2021/08/16 03:12:38;;;;;;;0.00;0.00;;;;;;;20.06;50.46;99013.97;5112474;28;20546;-76
2021/08/16 03:15:05;;;;;;;0.00;0.00;;;;;;;20.05;50.66;99014.34;5102174;28;20126;-74
2021/08/16 03:17:31;;;;;;;0.10;0.10;;;;;;;20.06;50.82;99024.06;5112051;28;20582;-74
2021/08/16 03:19:56;;;;;;;0.00;0.00;;;;;;;20.01;50.84;99022.38;5100689;28;20032;-74
2021/08/16 03:22:22;;;;;;;0.10;0.10;;;;;;;19.98;50.85;99018.41;5092479;28;20028;-74
2021/08/16 03:24:47;;;;;;;0.00;0.00;;;;;;;19.97;50.78;99016.81;5093361;28;20498;-75
2021/08/16 03:27:13;;;;;;;0.00;0.00;;;;;;;19.94;50.34;99020.19;5105655;28;20023;-76
2021/08/16 03:29:38;;;;;;;0.10;0.10;;;;;;;19.95;50.25;99024.50;5111484;28;20063;-76
2021/08/16 03:32:04;;;;;;;0.10;0.10;;;;;;;19.93;50.34;99018.63;5098275;28;20077;-74
2021/08/16 03:34:30;;;;;;;0.00;0.00;;;;;;;19.93;50.18;99017.84;5096550;28;20098;-75
2021/08/16 03:36:56;;;;;;;0.00;0.00;;;;;;;19.99;50.38;99025.44;5104707;28;20024;-76
2021/08/16 03:39:22;;;;;;;0.10;0.10;;;;;;;20.08;50.03;99024.50;5112537;28;20031;-75
2021/08/16 03:41:47;;;;;;;0.00;0.00;;;;;;;20.17;49.68;99019.75;5100810;28;20082;-74
2021/08/16 03:44:13;;;;;;;0.00;0.00;;;;;;;20.34;49.44;99020.66;5103067;28;20020;-75
2021/08/16 03:46:38;;;;;;;0.00;0.00;;;;;;;20.51;49.04;99016.84;5112264;27;20499;-75
2021/08/16 03:49:04;;;;;;;0.00;0.00;;;;;;;20.73;48.82;99015.59;5110019;28;20538;-75
2021/08/16 03:51:29;;;;;;;0.03;0.03;;;;;;;21.00;48.16;99019.44;5112222;28;20085;-75
2021/08/16 03:53:54;;;;;;;0.00;0.00;;;;;;;21.28;47.57;99024.84;5110315;28;20036;-74
2021/08/16 03:56:20;;;;;;;0.10;0.10;;;;;;;21.57;46.62;99013.97;5104085;28;20055;-75
2021/08/16 03:58:45;;;;;;;0.00;0.00;;;;;;;22.01;46.13;99032.13;5109681;28;20088;-73
2021/08/16 04:01:11;;;;;;;0.10;0.10;;;;;;;22.35;45.30;99035.22;5096192;28;20532;-79
2021/08/16 04:03:39;;;;;;;0.00;0.00;;;;;;;22.75;44.86;99034.16;5101489;28;20038;-79
2021/08/16 04:06:05;;;;;;;0.00;0.00;;;;;;;23.17;43.90;99035.41;5110752;28;20031;-79
2021/08/16 04:08:30;;;;;;;0.00;0.00;;;;;;;23.58;42.71;99041.22;5111305;28;20036;-80
2021/08/16 04:10:55;;;;;;;0.00;0.00;;;;;;;24.05;42.11;99033.00;5105723;28;20467;-79
2021/08/16 04:13:21;;;;;;;0.00;0.00;;;;;;;24.45;40.92;99040.59;5096097;28;20115;-78
2021/08/16 04:15:46;;;;;;;0.00;0.00;;;;;;;24.85;39.52;99032.13;5107953;28;20066;-79
2021/08/16 04:18:12;;;;;;;0.00;0.00;;;;;;;25.21;39.13;99036.06;5109631;28;20099;-84
2021/08/16 04:20:37;;;;;;;0.00;0.00;;;;;;;25.59;39.09;99041.53;5098317;28;20028;-79
2021/08/16 04:23:03;;;;;;;0.00;0.00;;;;;;;25.99;37.76;99047.34;5106812;28;20110;-83
2021/08/16 04:25:28;;;;;;;0.00;0.00;;;;;;;26.35;36.74;99034.69;5107641;28;20064;-78
2021/08/16 04:27:54;;;;;;;0.00;0.00;;;;;;;26.73;35.42;99028.97;5110353;28;20578;-78
2021/08/16 04:30:19;;;;;;;0.00;0.00;;;;;;;27.09;34.70;99029.13;5109011;28;20049;-75
2021/08/16 04:32:45;;;;;;;0.00;0.00;;;;;;;27.46;34.07;99024.53;5108894;28;20538;-77
2021/08/16 04:35:10;;;;;;;0.00;0.00;;;;;;;27.87;33.36;99029.63;5109704;28;20087;-78
2021/08/16 04:37:38;;;;;;;0.00;0.00;;;;;;;28.25;32.95;99026.47;5108858;28;20054;-84
2021/08/16 04:40:05;;;;;;;0.00;0.00;;;;;;;28.67;32.06;99029.47;5106850;28;20106;-87
2021/08/16 04:42:31;;;;;;;0.10;0.10;;;;;;;29.06;31.49;99023.00;5109210;28;20545;-85
2021/08/16 04:44:57;;;;;;;0.00;0.00;;;;;;;29.42;31.01;99024.78;5108707;28;20024;-84
2021/08/16 04:47:22;;;;;;;0.20;0.20;;;;;;;29.74;30.41;99032.03;5108653;28;20055;-85
2021/08/16 04:49:48;;;;;;;0.00;0.00;;;;;;;30.00;30.12;99030.63;5107977;28;20135;-83
2021/08/16 04:52:13;;;;;;;0.10;0.10;;;;;;;30.28;29.65;99032.31;5108986;28;20019;-84
2021/08/16 04:54:38;;;;;;;0.00;0.00;;;;;;;30.54;29.35;99023.78;5109043;28;20027;-83
2021/08/16 04:57:04;;;;;;;0.00;0.00;;;;;;;30.77;29.14;99015.63;5108829;28;20410;-87
2021/08/16 04:59:29;;;;;;;0.00;0.00;;;;;;;31.12;28.61;99034.91;5108725;28;20038;-85
2021/08/16 05:01:55;;;;;;;0.00;0.00;;;;;;;31.40;27.90;99028.16;5109733;28;20114;-91
2021/08/16 05:04:21;;;;;;;0.20;0.20;;;;;;;31.61;27.66;99027.03;5105703;28;20517;-86
2021/08/16 05:06:46;;;;;;;0.10;0.10;;;;;;;31.83;27.30;99025.94;5093491;28;20020;-81
2021/08/16 05:09:12;;;;;;;0.00;0.00;;;;;;;32.06;26.79;99030.66;5104677;28;20036;-82
2021/08/16 05:11:38;;;;;;;0.00;0.00;;;;;;;32.27;26.59;99039.81;5105410;28;20020;-76
2021/08/16 05:14:03;;;;;;;0.10;0.10;;;;;;;32.43;26.29;99039.88;5110707;28;20031;-85
2021/08/16 05:16:29;;;;;;;0.00;0.00;;;;;;;32.59;26.05;99041.94;5110256;28;20023;-94
2021/08/16 05:18:56;;;;;;;0.10;0.10;;;;;;;32.78;25.89;99040.38;5110038;28;20024;-91
2021/08/16 05:21:22;;;;;;;0.00;0.00;;;;;;;32.95;25.48;99043.22;5110587;28;20084;-83
2021/08/16 05:23:47;;;;;;;0.00;0.00;;;;;;;33.08;25.35;99041.34;5110165;28;20044;-81
2021/08/16 05:26:13;;;;;;;0.10;0.10;;;;;;;33.24;25.43;99051.66;5108363;28;20466;-77
2021/08/16 05:28:39;;;;;;;0.08;0.08;;;;;;;33.32;24.90;99039.22;5111038;28;20123;-78
2021/08/16 05:31:04;;;;;;;0.20;0.20;;;;;;;33.49;24.89;99039.25;5109391;28;20035;-79
2021/08/16 05:33:31;;;;;;;0.10;0.10;;;;;;;33.65;24.64;99044.75;5096379;28;20478;-90
2021/08/16 05:35:57;;;;;;;0.30;0.30;;;;;;;33.78;24.52;99039.31;5109773;28;20036;-83
2021/08/16 05:38:23;;;;;;;0.03;0.03;;;;;;;33.85;24.56;99043.94;5100167;28;20487;-89
2021/08/16 05:40:49;;;;;;;0.00;0.00;;;;;;;33.89;23.94;99041.84;5089545;28;20031;-80
2021/08/16 05:43:14;;;;;;;0.10;0.10;;;;;;;33.95;23.80;99039.31;5105634;28;20096;-81
2021/08/16 05:45:39;;;;;;;0.10;0.10;;;;;;;34.02;23.38;99033.59;5110284;28;20023;-83
2021/08/16 05:48:05;;;;;;;0.03;0.03;;;;;;;34.12;23.48;99035.28;5107965;28;20031;-90
2021/08/16 05:50:30;;;;;;;0.00;0.00;;;;;;;34.23;23.86;99040.56;5110900;28;20486;-83
2021/08/16 05:52:56;;;;;;;0.00;0.00;;;;;;;34.27;23.19;99041.22;5106137;28;20578;-86
2021/08/16 05:55:21;;;;;;;0.00;0.00;;;;;;;34.36;23.51;99042.63;5103971;28;20563;-80
2021/08/16 05:57:47;;;;;;;0.00;0.00;;;;;;;34.40;23.88;99038.53;5096786;28;20051;-83
2021/08/16 06:00:16;;;;;;;0.00;0.00;;;;;;;34.57;23.71;99038.44;5111627;28;20016;-81
2021/08/16 06:02:42;;;;;;;0.05;0.05;;;;;;;34.70;23.65;99036.47;5114647;28;20463;-79
2021/08/16 06:05:08;;;;;;;0.03;0.03;;;;;;;34.81;23.38;99027.84;5114208;28;20079;-79
2021/08/16 06:07:34;;;;;;;0.10;0.10;;;;;;;34.92;23.71;99035.88;5112782;28;20410;-78
2021/08/16 06:09:59;;;;;;;0.05;0.05;;;;;;;34.86;23.95;99032.06;5113279;28;20024;-81
2021/08/16 06:12:24;;;;;;;0.10;0.10;;;;;;;34.78;23.97;99032.28;5113227;28;20470;-80
2021/08/16 06:14:50;;;;;;;0.10;0.10;;;;;;;34.72;23.38;99039.59;5098978;28;20495;-80
2021/08/16 06:17:16;;;;;;;0.00;0.00;;;;;;;34.70;23.33;99027.38;5112749;28;20028;-82
2021/08/16 06:19:41;;;;;;;0.03;0.03;;;;;;;34.65;23.69;99033.50;5106214;28;20058;-85
2021/08/16 06:22:07;;;;;;;0.00;0.00;;;;;;;34.46;23.70;99031.22;5093710;28;20036;-82
2021/08/16 06:24:36;;;;;;;0.20;0.20;;;;;;;34.41;23.74;99030.97;5102687;28;20027;-82
2021/08/16 06:27:03;;;;;;;0.10;0.10;;;;;;;34.21;23.83;99033.88;5105264;28;20054;-79
2021/08/16 06:29:28;;;;;;;0.10;0.10;;;;;;;33.94;23.87;99030.22;5113059;28;20031;-78
2021/08/16 06:31:54;;;;;;;0.40;0.40;;;;;;;33.80;24.20;99034.13;5104840;28;20498;-89
2021/08/16 06:34:19;;;;;;;0.50;0.50;;;;;;;33.74;24.82;99043.38;5092564;28;20024;-80
2021/08/16 06:36:51;;;;;;;0.00;0.00;;;;;;;33.55;24.54;99042.28;5092534;28;20056;-88
2021/08/16 06:39:21;;;;;;;0.00;0.00;;;;;;;33.43;24.73;99035.44;5108135;28;20028;-84
2021/08/16 06:41:52;;;;;;;0.20;0.20;;;;;;;33.24;25.25;99043.34;5104256;28;20077;-85
2021/08/16 06:44:18;;;;;;;0.20;0.20;;;;;;;33.11;25.16;99042.47;5105737;28;20036;-84
2021/08/16 06:46:47;;;;;;;0.10;0.10;;;;;;;33.02;25.24;99037.50;5112475;28;20023;-79
2021/08/16 06:49:14;;;;;;;0.10;0.10;;;;;;;32.93;25.85;99048.41;5112579;28;20039;-88
2021/08/16 06:51:40;;;;;;;0.52;0.52;;;;;;;32.78;25.77;99045.94;5112815;28;20513;-92
2021/08/16 06:54:06;;;;;;;0.35;0.35;;;;;;;32.73;26.08;99044.41;5112521;28;20119;-87
2021/08/16 06:56:32;;;;;;;0.05;0.05;;;;;;;32.69;26.14;99040.16;5111522;28;20092;-78
2021/08/16 06:58:57;;;;;;;0.10;0.10;;;;;;;32.68;26.31;99038.59;5094107;28;20035;-78
2021/08/16 07:01:27;;;;;;;0.00;0.00;;;;;;;32.67;26.13;99039.81;5093514;28;20505;-77
2021/08/16 07:03:54;;;;;;;0.10;0.10;;;;;;;32.65;26.11;99044.97;5093207;28;20039;-79
2021/08/16 07:06:19;;;;;;;0.08;0.08;;;;;;;32.59;26.34;99041.94;5091833;28;20020;-79
2021/08/16 07:08:45;;;;;;;0.00;0.00;;;;;;;32.50;26.64;99048.03;5092961;28;20475;-79
2021/08/16 07:11:11;;;;;;;0.05;0.05;;;;;;;32.35;26.21;99036.47;5091635;28;20139;-79
2021/08/16 07:13:36;;;;;;;0.30;0.30;;;;;;;32.16;26.63;99035.22;5092175;28;20031;-79
2021/08/16 07:16:02;;;;;;;0.10;0.10;;;;;;;32.06;26.58;99034.19;5091292;28;20062;-79
2021/08/16 07:18:28;;;;;;;0.05;0.05;;;;;;;31.92;26.71;99032.50;5091637;28;20111;-79
2021/08/16 07:20:53;;;;;;;0.00;0.00;;;;;;;31.73;26.90;99039.50;5092667;28;20110;-79
2021/08/16 07:23:20;;;;;;;0.10;0.10;;;;;;;31.51;27.50;99036.28;5092856;28;20475;-79
2021/08/16 07:25:46;;;;;;;0.00;0.00;;;;;;;31.40;27.82;99043.97;5092904;28;20032;-79
2021/08/16 07:28:11;;;;;;;0.00;0.00;;;;;;;31.34;27.66;99043.66;5091254;28;20620;-79
2021/08/16 07:30:37;;;;;;;0.00;0.00;;;;;;;31.36;27.67;99048.75;5092513;28;20395;-79
2021/08/16 07:33:03;;;;;;;0.00;0.00;;;;;;;31.20;27.96;99036.38;5091246;28;20497;-79
2021/08/16 07:35:28;;;;;;;0.15;0.15;;;;;;;31.17;28.02;99041.94;5091298;28;20027;-79
2021/08/16 07:37:55;;;;;;;0.57;0.57;;;;;;;31.03;27.90;99040.91;5091065;28;20111;-79
2021/08/16 07:40:21;;;;;;;0.13;0.13;;;;;;;30.76;27.75;99047.19;5092580;28;20028;-78
2021/08/16 07:42:47;;;;;;;0.08;0.08;;;;;;;30.57;28.14;99048.59;5092509;28;20036;-79
2021/08/16 07:45:14;;;;;;;0.10;0.10;;;;;;;30.40;29.01;99047.56;5092398;28;20035;-79
2021/08/16 07:47:39;;;;;;;0.00;0.00;;;;;;;30.20;28.55;99050.16;5092339;28;20034;-79
2021/08/16 07:50:12;;;;;;;1.55;1.27;;;;;;;30.01;29.19;99051.50;5091910;28;20106;-79
2021/08/16 07:52:39;;;;;;;0.17;0.17;;;;;;;29.90;29.37;99045.28;5092413;28;20048;-79
2021/08/16 07:55:06;;;;;;;0.00;0.00;;;;;;;29.95;29.76;99055.91;5091959;28;20028;-79
2021/08/16 07:57:32;;;;;;;0.00;0.00;;;;;;;29.84;29.55;99053.97;5092232;28;20052;-78
2021/08/16 07:59:59;;;;;;;0.60;0.60;;;;;;;29.74;29.76;99041.06;5090596;28;20051;-78
2021/08/16 08:02:25;;;;;;;;;;;;;;;29.67;29.61;99043.88;5092589;28;20035;-79
2021/08/16 08:04:50;;;;;;;0.35;0.35;;;;;;;29.54;30.61;99040.81;5092157;28;19912;-79
2021/08/16 08:07:16;;;;;;;0.10;0.10;;;;;;;29.53;30.67;99042.03;5090538;28;20027;-78
2021/08/16 08:09:41;;;;;;;0.43;0.43;;;;;;;29.48;29.80;99042.44;5090579;28;20031;-79
2021/08/16 08:12:07;;;;;;;0.10;0.10;;;;;;;29.49;30.30;99035.75;5092283;28;20059;-79
2021/08/16 08:14:33;;;;;;;0.20;0.20;;;;;;;29.54;29.98;99027.84;5103017;28;20074;-79
2021/08/16 08:16:59;;;;;;;0.00;0.00;;;;;;;29.69;29.87;99034.03;5092557;28;20383;-79
2021/08/16 08:19:25;;;;;;;0.00;0.00;;;;;;;29.76;30.42;99024.94;5094896;28;20120;-79
2021/08/16 08:21:50;;;;;;;0.03;0.03;;;;;;;29.90;30.10;99028.75;5112113;28;20546;-79
2021/08/16 08:24:16;;;;;;;0.88;0.63;;;;;;;29.94;29.79;99026.75;5109498;28;20024;-80
2021/08/16 08:26:41;;;;;;;0.00;0.00;;;;;;;30.08;30.04;99023.88;5097347;28;20020;-91
2021/08/16 08:29:07;;;;;;;0.10;0.10;;;;;;;30.15;29.75;99017.47;5104045;28;20131;-87
2021/08/16 08:31:36;;;;;;;0.10;0.10;;;;;;;30.24;29.75;99019.78;5110644;28;20152;-91
2021/08/16 08:34:02;;;;;;;0.10;0.10;;;;;;;30.33;28.67;99020.84;5090019;22;20050;-86
2021/08/16 08:36:29;;;;;;;0.10;0.10;;;;;;;30.43;28.94;99021.13;5010798;28;20075;-91
2021/08/16 08:38:54;;;;;;;0.00;0.00;;;;;;;30.41;28.78;99015.25;5010405;28;20036;-85
2021/08/16 08:41:22;;;;;;;0.20;0.20;;;;;;;30.38;28.44;99016.06;5010403;28;20030;-80
2021/08/16 08:43:48;;;;;;;1.95;0.80;;;;;;;30.31;28.45;99019.66;5009837;28;20037;-80
2021/08/16 08:46:13;;;;;;;0.65;0.65;;;;;;;30.27;28.88;99010.66;5011461;28;20038;-84
2021/08/16 08:48:39;;;;;;;1.20;0.10;;;;;;;30.23;29.08;99002.44;5010914;28;20026;-87
2021/08/16 08:51:05;;;;;;;0.00;0.00;;;;;;;30.25;29.07;99007.53;5010105;28;20034;-87
2021/08/16 08:53:31;;;;;;;0.10;0.10;;;;;;;30.25;28.95;98999.25;5010232;28;20511;-81
2021/08/16 08:55:56;;;;;;;0.65;0.65;;;;;;;30.28;29.05;99003.97;5010044;28;20121;-81
2021/08/16 08:58:22;;;;;;;0.00;0.00;;;;;;;30.32;29.17;98993.66;5010587;28;20133;-82
2021/08/16 09:00:47;;;;;;;0.00;0.00;;;;;;;30.33;29.00;98992.47;5009720;28;20038;-84
2021/08/16 09:03:13;;;;;;;0.03;0.03;;;;;;;30.35;29.32;98985.34;5010058;28;20029;-83
2021/08/16 09:05:56;;;;;;;0.00;0.00;;;;;;;30.42;28.56;98986.44;5010203;28;20026;-84
2021/08/16 09:08:22;;;;;;;1.55;0.22;;;;;;;30.49;28.83;98983.59;5010853;28;20080;-79
2021/08/16 09:10:50;;;;;;;0.22;0.20;;;;;;;30.49;28.33;98978.09;5011474;28;20036;-90
2021/08/16 09:13:25;;;;;;;0.52;0.52;;;;;;;30.50;28.33;98968.66;5009582;28;20030;-81
2021/08/16 09:15:50;;;;;;;0.05;0.05;;;;;;;30.54;28.20;98971.34;4999761;28;20081;-85
2021/08/16 09:18:28;;;;;;;0.10;0.10;;;;;;;30.53;28.04;98962.31;4989876;28;20026;-77
2021/08/16 09:20:54;;;;;;;0.08;0.08;;;;;;;30.61;28.17;98971.28;5004192;28;20573;-88
2021/08/16 09:23:19;;;;;;;0.00;0.00;;;;;;;30.61;27.89;98961.00;5009883;28;20030;-86
2021/08/16 09:25:53;;;;;;;0.30;0.30;;;;;;;30.54;28.03;98958.38;5009678;28;20041;-85
2021/08/16 09:28:45;;;;;;;0.00;0.00;;;;;;;30.59;28.16;98966.19;5009692;28;20026;-85
2021/08/16 09:31:11;;;;;;;0.47;0.20;;;;;;;30.55;27.99;98953.63;5022747;28;20060;-84
2021/08/16 09:33:37;;;;;;;0.00;0.00;;;;;;;30.54;27.66;98955.59;5009023;28;20069;-85
2021/08/16 09:36:02;;;;;;;0.15;0.15;;;;;;;30.52;27.91;98954.44;5012863;28;20045;-83
2021/08/16 09:38:31;;;;;;;0.20;0.20;;;;;;;30.52;27.96;98948.91;5013545;28;20027;-85
2021/08/16 09:40:57;;;;;;;0.20;0.17;;;;;;;30.56;27.79;98947.69;5013848;28;20057;-93
2021/08/16 09:43:30;;;;;;;0.20;0.20;;;;;;;30.46;27.92;98948.56;5012926;28;20033;-84
2021/08/16 09:45:56;;;;;;;0.10;0.10;;;;;;;30.42;27.90;98939.53;5013198;28;20067;-81
2021/08/16 09:48:24;;;;;;;0.10;0.10;;;;;;;30.40;27.89;98939.19;5010717;28;20037;-80
2021/08/16 09:50:51;;;;;;;0.22;0.22;;;;;;;30.40;28.26;98930.94;5001910;28;20075;-82
2021/08/16 09:53:19;;;;;;;0.65;0.47;;;;;;;30.39;27.67;98930.13;5003380;28;20036;-79
2021/08/16 09:55:47;;;;;;;0.25;0.25;;;;;;;30.39;28.48;98932.13;5006296;28;20185;-85
2021/08/16 09:58:15;;;;;;;0.00;0.00;;;;;;;30.41;27.97;98927.75;5012537;28;20033;-85
2021/08/16 10:00:46;;;;;;;0.10;0.10;;;;;;;30.46;27.88;98929.25;5012840;28;20025;-85
2021/08/16 10:03:12;;;;;;;0.20;0.20;;;;;;;30.41;27.65;98938.00;5027779;28;20029;-86
2021/08/16 10:05:42;;;;;;;0.45;0.45;;;;;;;30.42;27.65;98929.31;5024177;28;20033;-83
2021/08/16 10:08:10;;;;;;;0.00;0.00;;;;;;;30.45;27.36;98925.72;5004589;28;20104;-80
2021/08/16 10:10:37;;;;;;;0.10;0.10;;;;;;;30.47;27.21;98926.09;5010191;28;20141;-81
2021/08/16 10:13:04;;;;;;;0.00;0.00;;;;;;;30.55;27.20;98920.50;5007209;28;20038;-84
2021/08/16 10:15:41;;;;;;;0.15;0.15;;;;;;;30.61;26.59;98907.78;4994215;28;20026;-80
2021/08/16 10:18:14;;;;;;;0.10;0.10;;;;;;;30.71;26.73;98906.84;5012627;28;20130;-78
2021/08/16 10:20:40;;;;;;;0.00;0.00;;;;;;;30.81;26.54;98911.44;5014121;28;20109;-82
2021/08/16 10:23:24;;;;;;;0.00;0.00;;;;;;;30.86;25.90;98901.91;5001696;28;20126;-82
2021/08/16 10:25:55;;;;;;;0.00;0.00;;;;;;;30.90;23.98;98901.88;4992794;28;20034;-78
2021/08/16 10:28:31;;;;;;;0.00;0.00;;;;;;;30.89;23.95;98895.56;4992831;28;20058;-81
2021/08/16 10:30:59;;;;;;;0.00;0.00;;;;;;;30.97;24.40;98899.00;4994199;28;20067;-79
2021/08/16 10:33:25;;;;;;;0.00;0.00;;;;;;;31.00;24.08;98898.16;4992630;28;20069;-78
2021/08/16 10:35:52;;;;;;;1.75;0.20;;;;;;;31.07;24.50;98891.75;4993899;28;20037;-76
2021/08/16 10:38:20;;;;;;;0.10;0.10;;;;;;;31.19;23.17;98891.16;4992569;28;20061;-78
2021/08/16 10:41:03;;;;;;;0.10;0.10;;;;;;;31.18;21.76;98886.84;4994111;28;20075;-78
2021/08/16 10:43:34;;;;;;;0.05;0.05;;;;;;;31.18;22.77;98906.19;4994177;28;20034;-78
2021/08/16 10:46:00;;;;;;;0.40;0.40;;;;;;;31.10;23.49;98899.19;4993664;28;20494;-78
2021/08/16 10:48:26;;;;;;;0.28;0.28;;;;;;;31.09;23.73;98887.38;5012261;28;20038;-78
2021/08/16 10:51:09;;;;;;;0.30;0.30;;;;;;;31.10;23.14;98885.41;5004363;28;20030;-79
2021/08/16 10:53:47;;;;;;;0.10;0.10;;;;;;;31.17;23.18;98885.28;5011839;28;20077;-78
2021/08/16 10:56:17;;;;;;;0.00;0.00;;;;;;;31.16;22.17;98888.47;5012983;28;20492;-79
2021/08/16 10:58:43;;;;;;;0.10;0.10;;;;;;;31.13;22.67;98877.06;5013440;28;20592;-78
2021/08/16 11:01:12;;;;;;;0.38;0.35;;;;;;;31.16;22.61;98872.66;5012447;28;20064;-77
2021/08/16 11:03:37;;;;;;;0.00;0.00;;;;;;;31.19;22.46;98865.50;5012192;28;20133;-78
2021/08/16 11:06:06;;;;;;;0.47;0.47;;;;;;;31.22;22.94;98873.75;5012364;28;20097;-77
2021/08/16 11:08:32;;;;;;;0.00;0.00;;;;;;;31.22;23.39;98861.94;5012632;28;20501;-76
2021/08/16 11:11:05;;;;;;;0.00;0.00;;;;;;;31.28;23.69;98854.72;5012193;28;20061;-77
2021/08/16 11:13:32;;;;;;;0.00;0.00;;;;;;;31.30;23.78;98849.56;5012786;28;20037;-78
2021/08/16 11:16:04;;;;;;;0.00;0.00;;;;;;;31.39;23.70;98857.28;5012892;28;20068;-75
2021/08/16 11:18:29;;;;;;;0.47;0.47;;;;;;;31.41;22.87;98847.38;5011505;28;20410;-76
2021/08/16 11:20:57;;;;;;;0.00;0.00;;;;;;;31.46;21.87;98846.09;5012525;28;20037;-77
2021/08/16 11:23:23;;;;;;;0.00;0.00;;;;;;;31.50;22.11;98844.03;5012677;28;20049;-77
2021/08/16 11:25:51;;;;;;;0.00;0.00;;;;;;;31.58;22.10;98844.72;5012369;28;20026;-76
2021/08/16 11:28:18;;;;;;;;;;;;;;;31.65;21.14;98841.03;5010825;28;20555;-77
2021/08/16 11:30:44;;;;;;;0.13;0.10;;;;;;;31.68;21.17;98842.97;5012403;28;19973;-77